Terminal Aerodrome Forecast
Issued by NWS Milwaukee/Sullivan, WI

Home | Current Version | Previous Version | Text Only | Print | Product List | Glossary On
Versions: 1 2 3 4 5 6 7 8 9 10 11 12 13 14 15 16 17 18 19 20 21 22 23 24 25 26 27 28 29 30 31 32 33 34 35 36 37 38 39
000
FTUS43 KMKX 290527
TAFMSN
TAF
KMSN 290527Z 2906/3006 08010KT 4SM SHRA BR SCT007 OVC010
     FM290700 11010KT 2SM -SHRA BR OVC006
     FM291000 14007KT 1 1/2SM -SHRA BR OVC004
     FM291500 17006KT 5SM BR OVC008
     FM291800 VRB03KT P6SM OVC020
     FM291900 13004KT P6SM OVC025
     FM292200 10004KT P6SM BKN035=

USA.gov is the U.S. government's official web portal to all federal, state and local government web resources and services.